Time;durP1;ratioP1;P1;durP2;ratioP2;P2;SDS_P1;SDS_P2;PMS_P1;PMS_P2;Temp;Humidity;BMP_temperature;BMP_pressure;BME280_temperature;BME280_humidity;BME280_pressure;Samples;Min_cycle;Max_cycle;Signal;HPM_P1;HPM_P2
2023/08/01 00:02:21;;;;;;;7.90;4.80;;;;;;;;;;4987227;28;20225;-60
2023/08/01 00:04:46;;;;;;;19.73;6.00;;;;;;;;;;4987486;28;20259;-60
2023/08/01 00:07:12;;;;;;;7.00;4.70;;;;;;;;;;4987711;28;20679;-61
2023/08/01 00:09:37;;;;;;;9.52;4.82;;;;;;;;;;4988840;28;20224;-60
2023/08/01 00:12:02;;;;;;;10.60;5.43;;;;;;;;;;4985934;28;20209;-60
2023/08/01 00:14:27;;;;;;;11.55;5.40;;;;;;;;;;4988380;28;20283;-60
2023/08/01 00:16:53;;;;;;;31.13;6.85;;;;;;;;;;4988635;28;20220;-61
2023/08/01 00:19:19;;;;;;;8.00;5.50;;;;;;;;;;4985887;28;20217;-60
2023/08/01 00:21:44;;;;;;;11.77;6.10;;;;;;;;;;4987513;28;20243;-60
2023/08/01 00:24:09;;;;;;;7.65;4.70;;;;;;;;;;4988243;28;20665;-61
2023/08/01 00:26:34;;;;;;;7.10;4.43;;;;;;;;;;4986961;28;20704;-61
2023/08/01 00:29:00;;;;;;;5.60;4.03;;;;;;;;;;4986361;28;20707;-61
2023/08/01 00:31:25;;;;;;;29.67;4.90;;;;;;;;;;4987922;28;20256;-61
2023/08/01 00:33:50;;;;;;;4.82;3.55;;;;;;;;;;4988255;28;20229;-60
2023/08/01 00:36:16;;;;;;;7.93;3.58;;;;;;;;;;4984805;28;20571;-60
2023/08/01 00:38:43;;;;;;;16.08;3.92;;;;;;;;;;4988692;28;20248;-61
2023/08/01 00:41:08;;;;;;;7.13;3.38;;;;;;;;;;4987672;28;20352;-61
2023/08/01 00:43:33;;;;;;;6.80;3.55;;;;;;;;;;4986145;28;20299;-61
2023/08/01 00:46:00;;;;;;;11.02;3.80;;;;;;;;;;4987351;28;20620;-60
2023/08/01 00:48:25;;;;;;;7.50;3.40;;;;;;;;;;4920499;28;1130708;-60
2023/08/01 00:50:50;;;;;;;13.40;3.90;;;;;;;;;;4978324;28;20706;-61
2023/08/01 00:53:16;;;;;;;8.50;3.60;;;;;;;;;;4977195;28;20208;-60
2023/08/01 00:55:41;;;;;;;8.75;3.40;;;;;;;;;;4978896;28;20213;-60
2023/08/01 00:58:06;;;;;;;10.30;3.58;;;;;;;;;;4974853;28;20224;-61
2023/08/01 01:00:33;;;;;;;16.83;3.95;;;;;;;;;;4969286;28;20285;-61
2023/08/01 01:02:58;;;;;;;6.22;3.30;;;;;;;;;;4973303;28;20296;-60
2023/08/01 01:05:23;;;;;;;9.20;3.70;;;;;;;;;;4974734;28;20225;-60
2023/08/01 01:07:49;;;;;;;8.60;3.80;;;;;;;;;;4962508;28;20248;-61
2023/08/01 01:10:15;;;;;;;11.20;3.88;;;;;;;;;;4975857;28;20336;-61
2023/08/01 01:12:40;;;;;;;8.20;3.28;;;;;;;;;;4978132;28;20513;-61
2023/08/01 01:15:06;;;;;;;6.43;3.33;;;;;;;;;;4978651;28;20232;-61
2023/08/01 01:17:31;;;;;;;10.75;3.42;;;;;;;;;;4977143;28;20213;-60
2023/08/01 01:19:58;;;;;;;8.15;3.30;;;;;;;;;;4977149;28;20213;-61
2023/08/01 01:22:23;;;;;;;8.23;3.13;;;;;;;;;;4971155;28;21007;-61
2023/08/01 01:24:49;;;;;;;6.57;3.30;;;;;;;;;;4953008;28;20253;-60
2023/08/01 01:27:14;;;;;;;9.68;4.05;;;;;;;;;;4952409;28;20675;-61
2023/08/01 01:29:39;;;;;;;10.07;3.38;;;;;;;;;;4979172;28;20208;-61
2023/08/01 01:32:05;;;;;;;12.85;3.80;;;;;;;;;;4960368;28;20252;-61
2023/08/01 01:34:30;;;;;;;23.33;4.90;;;;;;;;;;4958870;28;21022;-61
2023/08/01 01:36:55;;;;;;;8.32;3.42;;;;;;;;;;4978323;28;20275;-61
2023/08/01 01:39:20;;;;;;;9.25;4.10;;;;;;;;;;4978059;28;20225;-61
2023/08/01 01:41:46;;;;;;;9.38;3.97;;;;;;;;;;4977319;28;20510;-61
2023/08/01 01:44:11;;;;;;;8.77;3.70;;;;;;;;;;4971620;28;20233;-61
2023/08/01 01:46:36;;;;;;;6.97;3.72;;;;;;;;;;4970140;28;20464;-61
2023/08/01 01:49:02;;;;;;;8.45;3.60;;;;;;;;;;4984800;28;20221;-61
2023/08/01 01:51:29;;;;;;;7.22;3.85;;;;;;;;;;4985877;28;20209;-61
2023/08/01 01:53:54;;;;;;;8.00;4.40;;;;;;;;;;4987751;28;20610;-60
2023/08/01 01:56:19;;;;;;;9.60;4.13;;;;;;;;;;4988011;28;20221;-60
2023/08/01 01:58:45;;;;;;;7.03;3.92;;;;;;;;;;4967859;28;20790;-61
2023/08/01 02:01:10;;;;;;;8.30;4.03;;;;;;;;;;4976896;28;20217;-61
2023/08/01 02:03:36;;;;;;;8.57;4.03;;;;;;;;;;4978393;28;20252;-60
2023/08/01 02:06:03;;;;;;;8.50;4.13;;;;;;;;;;4977045;28;20209;-61
2023/08/01 02:08:28;;;;;;;8.27;4.32;;;;;;;;;;4977853;28;20213;-60
2023/08/01 02:10:55;;;;;;;11.05;4.55;;;;;;;;;;4978606;28;20206;-61
2023/08/01 02:13:20;;;;;;;10.25;4.53;;;;;;;;;;4977538;28;20786;-60
2023/08/01 02:15:45;;;;;;;10.00;5.15;;;;;;;;;;4972075;28;21300;-60
2023/08/01 02:18:10;;;;;;;7.75;4.45;;;;;;;;;;4969987;28;21278;-60
2023/08/01 02:20:36;;;;;;;10.80;4.97;;;;;;;;;;4970097;28;20217;-60
2023/08/01 02:23:01;;;;;;;9.70;4.63;;;;;;;;;;4974477;28;20760;-61
2023/08/01 02:25:26;;;;;;;11.43;4.78;;;;;;;;;;4981296;28;20229;-61
2023/08/01 02:27:52;;;;;;;10.73;6.07;;;;;;;;;;4981417;28;20209;-60
2023/08/01 02:30:17;;;;;;;13.95;5.43;;;;;;;;;;4963617;28;20217;-61
2023/08/01 02:32:42;;;;;;;11.52;5.75;;;;;;;;;;4980167;28;20205;-60
2023/08/01 02:35:08;;;;;;;13.15;5.90;;;;;;;;;;4981108;28;20224;-61
2023/08/01 02:37:33;;;;;;;11.13;5.93;;;;;;;;;;4978878;28;20319;-60
2023/08/01 02:39:58;;;;;;;9.77;5.90;;;;;;;;;;4972079;28;20241;-60
2023/08/01 02:42:23;;;;;;;12.95;5.97;;;;;;;;;;4972738;28;20220;-60
2023/08/01 02:44:49;;;;;;;10.65;6.43;;;;;;;;;;4976160;28;20828;-60
2023/08/01 02:47:14;;;;;;;19.98;6.95;;;;;;;;;;4979282;28;20692;-61
2023/08/01 02:49:39;;;;;;;10.05;6.40;;;;;;;;;;4979968;28;20217;-61
2023/08/01 02:52:05;;;;;;;15.25;7.13;;;;;;;;;;4981073;28;20229;-61
2023/08/01 02:54:30;;;;;;;13.70;7.40;;;;;;;;;;4980796;28;20216;-60
2023/08/01 02:56:55;;;;;;;13.00;6.25;;;;;;;;;;4979995;28;20217;-61
2023/08/01 02:59:20;;;;;;;10.52;5.95;;;;;;;;;;4988803;28;20668;-61
2023/08/01 03:01:46;;;;;;;15.73;7.18;;;;;;;;;;4990466;28;20556;-61
2023/08/01 03:04:11;;;;;;;13.27;6.63;;;;;;;;;;4987126;28;20236;-61
2023/08/01 03:06:37;;;;;;;15.35;6.90;;;;;;;;;;4990592;28;20243;-60
2023/08/01 03:09:02;;;;;;;11.07;6.43;;;;;;;;;;4990068;28;20232;-61
2023/08/01 03:11:27;;;;;;;18.05;8.00;;;;;;;;;;4989023;28;20220;-60
2023/08/01 03:13:52;;;;;;;36.75;7.82;;;;;;;;;;4989685;28;20213;-60
2023/08/01 03:16:18;;;;;;;14.43;6.38;;;;;;;;;;4990069;28;20217;-60
2023/08/01 03:18:43;;;;;;;15.98;7.22;;;;;;;;;;4989822;28;20253;-60
2023/08/01 03:21:08;;;;;;;12.88;6.63;;;;;;;;;;4983171;28;20229;-61
2023/08/01 03:23:34;;;;;;;16.20;7.40;;;;;;;;;;4977435;28;20310;-60
2023/08/01 03:25:59;;;;;;;17.42;6.95;;;;;;;;;;4973829;28;20370;-60
2023/08/01 03:28:25;;;;;;;15.30;7.82;;;;;;;;;;4952233;28;20514;-61
2023/08/01 03:30:53;;;;;;;16.45;7.57;;;;;;;;;;4975300;28;20621;-61
2023/08/01 03:33:18;;;;;;;17.02;7.85;;;;;;;;;;4979979;28;20553;-61
2023/08/01 03:35:43;;;;;;;23.33;8.77;;;;;;;;;;4978710;28;20219;-61
2023/08/01 03:38:09;;;;;;;20.98;7.55;;;;;;;;;;4978191;28;20225;-60
2023/08/01 03:40:34;;;;;;;15.20;8.07;;;;;;;;;;4980736;28;20296;-61
2023/08/01 03:42:59;;;;;;;17.90;8.68;;;;;;;;;;4980286;28;20217;-61
2023/08/01 03:45:24;;;;;;;16.10;7.47;;;;;;;;;;4977195;28;20302;-61
2023/08/01 03:47:50;;;;;;;21.83;8.13;;;;;;;;;;4973061;28;20228;-61
2023/08/01 03:50:15;;;;;;;14.18;7.22;;;;;;;;;;4972032;28;20236;-61
2023/08/01 03:52:41;;;;;;;16.42;7.20;;;;;;;;;;4970863;28;20213;-61
2023/08/01 03:55:06;;;;;;;20.08;7.40;;;;;;;;;;4978891;28;20296;-61
2023/08/01 03:57:33;;;;;;;27.83;8.18;;;;;;;;;;4980544;28;21191;-60
2023/08/01 03:59:59;;;;;;;19.92;7.90;;;;;;;;;;4978595;28;20586;-61
2023/08/01 04:02:24;;;;;;;19.40;8.05;;;;;;;;;;4976384;28;20613;-61
2023/08/01 04:04:49;;;;;;;59.80;10.27;;;;;;;;;;4980044;28;20236;-61
2023/08/01 04:07:15;;;;;;;146.30;14.30;;;;;;;;;;4979026;28;20280;-61
2023/08/01 04:09:40;;;;;;;22.35;7.93;;;;;;;;;;4972999;28;20715;-61
2023/08/01 04:12:06;;;;;;;17.33;6.85;;;;;;;;;;4971658;28;20245;-61
2023/08/01 04:14:32;;;;;;;22.08;7.65;;;;;;;;;;4972058;28;20283;-60
2023/08/01 04:16:57;;;;;;;15.15;6.90;;;;;;;;;;4975982;28;20673;-60
2023/08/01 04:19:23;;;;;;;20.13;7.40;;;;;;;;;;4978255;28;20221;-61
2023/08/01 04:21:48;;;;;;;18.75;7.47;;;;;;;;;;4979306;28;20688;-61
2023/08/01 04:24:13;;;;;;;17.67;7.13;;;;;;;;;;4978712;28;20327;-60
2023/08/01 04:26:39;;;;;;;36.90;7.80;;;;;;;;;;4977957;28;20250;-60
2023/08/01 04:29:04;;;;;;;17.73;6.35;;;;;;;;;;4979132;28;20213;-61
2023/08/01 04:31:29;;;;;;;19.33;6.75;;;;;;;;;;4976680;28;20217;-61
2023/08/01 04:33:55;;;;;;;19.58;6.50;;;;;;;;;;4969414;28;20464;-61
2023/08/01 04:36:20;;;;;;;20.10;6.60;;;;;;;;;;4970990;28;20452;-60
2023/08/01 04:38:45;;;;;;;37.50;7.72;;;;;;;;;;4973761;28;20216;-61
2023/08/01 04:41:10;;;;;;;15.88;6.82;;;;;;;;;;4976575;28;20236;-61
2023/08/01 04:43:36;;;;;;;18.85;6.57;;;;;;;;;;4976112;28;20244;-61
2023/08/01 04:46:01;;;;;;;16.67;6.60;;;;;;;;;;4974639;28;20763;-61
2023/08/01 04:48:26;;;;;;;17.53;7.17;;;;;;;;;;4974235;28;20444;-61
2023/08/01 04:50:51;;;;;;;19.48;7.15;;;;;;;;;;4977466;28;20229;-60
2023/08/01 04:53:17;;;;;;;27.23;7.80;;;;;;;;;;4981523;28;20437;-61
2023/08/01 04:55:42;;;;;;;19.23;6.63;;;;;;;;;;4982094;28;20245;-61
2023/08/01 04:58:07;;;;;;;32.15;7.55;;;;;;;;;;4980191;28;20683;-62
2023/08/01 05:00:32;;;;;;;26.50;8.20;;;;;;;;;;4982027;28;20661;-63
2023/08/01 05:02:58;;;;;;;22.98;7.32;;;;;;;;;;4981933;28;20217;-61
2023/08/01 05:05:23;;;;;;;35.53;7.10;;;;;;;;;;4979854;28;20248;-61
2023/08/01 05:07:48;;;;;;;28.25;7.20;;;;;;;;;;4954787;28;20225;-61
2023/08/01 05:10:14;;;;;;;16.63;6.50;;;;;;;;;;4973912;28;20251;-62
2023/08/01 05:12:39;;;;;;;23.75;7.07;;;;;;;;;;4976588;28;20329;-61
2023/08/01 05:15:04;;;;;;;15.82;5.90;;;;;;;;;;4980102;28;20275;-61
2023/08/01 05:17:30;;;;;;;30.77;6.90;;;;;;;;;;4982371;28;20217;-61
2023/08/01 05:19:55;;;;;;;23.55;6.03;;;;;;;;;;4982202;28;20212;-61
2023/08/01 05:22:20;;;;;;;15.63;6.15;;;;;;;;;;4980303;28;20223;-61
2023/08/01 05:24:46;;;;;;;20.92;6.80;;;;;;;;;;4963988;28;20225;-61
2023/08/01 05:27:11;;;;;;;16.88;6.32;;;;;;;;;;4982169;28;20307;-61
2023/08/01 05:29:36;;;;;;;15.77;6.88;;;;;;;;;;4974756;28;20244;-61
2023/08/01 05:32:02;;;;;;;19.13;7.00;;;;;;;;;;4972636;28;20258;-61
2023/08/01 05:34:27;;;;;;;26.40;6.93;;;;;;;;;;4976595;28;20213;-62
2023/08/01 05:36:52;;;;;;;17.77;6.05;;;;;;;;;;4980379;28;20228;-61
2023/08/01 05:39:18;;;;;;;16.90;6.57;;;;;;;;;;4979305;28;20205;-61
2023/08/01 05:41:43;;;;;;;15.95;6.15;;;;;;;;;;4984194;28;20248;-61
2023/08/01 05:44:08;;;;;;;14.63;6.05;;;;;;;;;;4984559;28;20252;-61
2023/08/01 05:46:33;;;;;;;16.58;6.80;;;;;;;;;;4980681;28;20212;-61
2023/08/01 05:48:59;;;;;;;28.52;6.68;;;;;;;;;;4982930;28;20716;-61
2023/08/01 05:51:24;;;;;;;24.33;6.38;;;;;;;;;;4976578;28;20228;-61
2023/08/01 05:53:49;;;;;;;21.65;6.93;;;;;;;;;;4973251;28;20221;-61
2023/08/01 05:56:15;;;;;;;27.80;7.05;;;;;;;;;;4974394;28;20620;-61
2023/08/01 05:58:40;;;;;;;21.02;7.15;;;;;;;;;;4979957;28;20229;-61
2023/08/01 06:01:05;;;;;;;17.20;6.70;;;;;;;;;;4983015;28;20805;-61
2023/08/01 06:03:31;;;;;;;16.60;6.90;;;;;;;;;;4985483;28;20213;-61
2023/08/01 06:05:56;;;;;;;21.50;6.68;;;;;;;;;;4984907;28;20229;-61
2023/08/01 06:08:21;;;;;;;15.90;6.88;;;;;;;;;;4983628;28;20222;-61
2023/08/01 06:10:47;;;;;;;16.02;6.43;;;;;;;;;;4984500;28;21107;-61
2023/08/01 06:13:12;;;;;;;17.13;6.05;;;;;;;;;;4984119;28;20212;-61
2023/08/01 06:15:37;;;;;;;15.73;5.88;;;;;;;;;;4971592;28;20208;-61
2023/08/01 06:18:03;;;;;;;16.55;5.97;;;;;;;;;;4976383;28;20225;-61
2023/08/01 06:20:28;;;;;;;13.93;5.50;;;;;;;;;;4979819;28;20205;-61
2023/08/01 06:22:53;;;;;;;14.52;5.60;;;;;;;;;;4985707;28;20228;-61
2023/08/01 06:25:19;;;;;;;12.90;6.03;;;;;;;;;;4982586;28;20261;-61
2023/08/01 06:27:44;;;;;;;12.55;5.70;;;;;;;;;;4985340;28;20217;-61
2023/08/01 06:30:10;;;;;;;12.10;4.70;;;;;;;;;;4984319;28;20217;-61
2023/08/01 06:32:35;;;;;;;14.15;5.32;;;;;;;;;;4984600;28;20216;-61
2023/08/01 06:35:00;;;;;;;12.88;4.97;;;;;;;;;;4982839;28;20303;-61
2023/08/01 06:37:25;;;;;;;13.82;5.05;;;;;;;;;;4978864;28;20213;-61
2023/08/01 06:39:51;;;;;;;14.25;5.13;;;;;;;;;;4977141;28;20650;-61
2023/08/01 06:42:16;;;;;;;33.33;5.50;;;;;;;;;;4975545;28;20217;-61
2023/08/01 06:44:41;;;;;;;15.48;4.70;;;;;;;;;;4982503;28;20275;-61
2023/08/01 06:47:06;;;;;;;13.65;5.18;;;;;;;;;;4984079;28;20283;-60
2023/08/01 06:49:32;;;;;;;12.88;4.97;;;;;;;;;;4983160;28;20233;-61
2023/08/01 06:51:57;;;;;;;16.20;5.10;;;;;;;;;;4984651;28;20217;-61
2023/08/01 06:54:22;;;;;;;17.70;4.80;;;;;;;;;;4984235;28;20240;-61
2023/08/01 06:56:48;;;;;;;17.23;4.88;;;;;;;;;;4984001;28;20316;-61
2023/08/01 06:59:14;;;;;;;29.27;5.43;;;;;;;;;;4979702;28;20726;-61
2023/08/01 07:01:40;;;;;;;14.60;4.50;;;;;;;;;;4976430;28;20209;-61
2023/08/01 07:04:05;;;;;;;16.20;4.32;;;;;;;;;;4976741;28;20229;-61
2023/08/01 07:06:31;;;;;;;16.08;4.60;;;;;;;;;;4983096;28;20302;-61
2023/08/01 07:08:57;;;;;;;17.45;4.63;;;;;;;;;;4987391;28;20265;-61
2023/08/01 07:11:22;;;;;;;19.33;4.70;;;;;;;;;;4987111;28;20220;-61
2023/08/01 07:13:48;;;;;;;14.05;4.15;;;;;;;;;;4987515;28;20221;-61
2023/08/01 07:16:13;;;;;;;20.50;5.05;;;;;;;;;;4985899;28;20216;-61
2023/08/01 07:18:38;;;;;;;17.95;4.50;;;;;;;;;;4985696;28;20224;-61
2023/08/01 07:21:04;;;;;;;14.00;3.72;;;;;;;;;;4984983;28;20217;-61
2023/08/01 07:23:29;;;;;;;12.77;4.13;;;;;;;;;;4977375;28;20470;-61
2023/08/01 07:25:55;;;;;;;30.80;5.60;;;;;;;;;;4979569;28;20279;-61
2023/08/01 07:28:20;;;;;;;42.17;5.85;;;;;;;;;;4980132;28;20221;-61
2023/08/01 07:30:45;;;;;;;15.65;4.25;;;;;;;;;;4986645;28;20216;-61
2023/08/01 07:33:11;;;;;;;16.73;4.38;;;;;;;;;;4969013;28;20734;-61
2023/08/01 07:35:36;;;;;;;24.48;4.70;;;;;;;;;;4986897;28;20279;-61
2023/08/01 07:38:01;;;;;;;16.38;4.10;;;;;;;;;;4986483;28;20650;-61
2023/08/01 07:40:27;;;;;;;19.45;3.70;;;;;;;;;;4986908;28;20275;-61
2023/08/01 07:42:52;;;;;;;13.13;4.32;;;;;;;;;;4986679;28;20701;-61
2023/08/01 07:45:18;;;;;;;9.88;3.88;;;;;;;;;;4979052;28;20233;-62
2023/08/01 07:47:44;;;;;;;11.00;3.85;;;;;;;;;;4979480;28;20260;-62
2023/08/01 07:50:09;;;;;;;27.65;4.28;;;;;;;;;;4979188;28;20680;-62
2023/08/01 07:52:34;;;;;;;21.73;4.00;;;;;;;;;;4984326;28;20681;-62
2023/08/01 07:55:00;;;;;;;40.08;4.82;;;;;;;;;;4986356;28;20221;-62
2023/08/01 07:57:25;;;;;;;15.05;3.40;;;;;;;;;;4984839;28;20216;-62
2023/08/01 07:59:50;;;;;;;16.70;3.30;;;;;;;;;;4985025;28;20221;-62
2023/08/01 08:02:16;;;;;;;11.73;3.40;;;;;;;;;;4985814;28;20287;-62
2023/08/01 08:04:41;;;;;;;18.23;3.95;;;;;;;;;;4986385;28;20229;-61
2023/08/01 08:07:06;;;;;;;9.88;2.80;;;;;;;;;;4981829;28;20205;-61
2023/08/01 08:09:32;;;;;;;11.30;3.08;;;;;;;;;;4979376;28;20216;-61
2023/08/01 08:11:57;;;;;;;12.68;2.72;;;;;;;;;;4978854;28;20314;-62
2023/08/01 08:14:23;;;;;;;22.30;3.85;;;;;;;;;;4981930;28;20228;-62
2023/08/01 08:16:48;;;;;;;13.32;3.10;;;;;;;;;;4986238;28;20225;-61
2023/08/01 08:19:13;;;;;;;19.90;3.50;;;;;;;;;;4985500;28;20244;-62
2023/08/01 08:21:39;;;;;;;16.95;3.42;;;;;;;;;;4986117;28;20229;-61
2023/08/01 08:24:04;;;;;;;16.92;3.40;;;;;;;;;;4985784;28;20236;-62
2023/08/01 08:26:31;;;;;;;11.88;2.78;;;;;;;;;;4984952;28;20213;-62
2023/08/01 08:28:56;;;;;;;15.38;3.55;;;;;;;;;;4967843;28;20213;-61
2023/08/01 08:31:21;;;;;;;16.60;3.10;;;;;;;;;;4975998;28;20251;-62
2023/08/01 08:33:47;;;;;;;9.57;3.00;;;;;;;;;;4973452;28;20209;-61
2023/08/01 08:36:12;;;;;;;22.80;3.55;;;;;;;;;;4976445;28;20304;-61
2023/08/01 08:38:37;;;;;;;15.25;3.65;;;;;;;;;;4981654;28;20263;-62
2023/08/01 08:41:09;;;;;;;20.20;3.90;;;;;;;;;;4981208;28;20221;-62
2023/08/01 08:43:35;;;;;;;260.30;17.83;;;;;;;;;;4980938;28;20217;-62
2023/08/01 08:46:00;;;;;;;11.90;3.20;;;;;;;;;;4982723;28;20233;-62
2023/08/01 08:48:25;;;;;;;16.15;3.30;;;;;;;;;;4981888;28;20256;-61
2023/08/01 08:50:50;;;;;;;27.85;3.58;;;;;;;;;;4956987;28;20236;-62
2023/08/01 08:53:16;;;;;;;9.32;2.83;;;;;;;;;;4957919;28;20217;-62
2023/08/01 08:55:41;;;;;;;10.20;3.25;;;;;;;;;;4946801;28;20703;-62
2023/08/01 08:58:07;;;;;;;14.68;2.97;;;;;;;;;;4973644;28;20294;-62
2023/08/01 09:00:32;;;;;;;9.55;3.00;;;;;;;;;;4961710;28;20591;-62
2023/08/01 09:02:57;;;;;;;9.23;2.67;;;;;;;;;;4965090;28;20689;-62
2023/08/01 09:05:24;;;;;;;9.90;3.15;;;;;;;;;;4981908;28;20282;-62
2023/08/01 09:07:49;;;;;;;10.25;3.10;;;;;;;;;;4981016;28;20292;-62
2023/08/01 09:10:15;;;;;;;13.32;3.30;;;;;;;;;;4952643;28;20225;-61
2023/08/01 09:12:40;;;;;;;24.70;3.80;;;;;;;;;;4981506;28;20296;-62
2023/08/01 09:15:05;;;;;;;13.93;2.92;;;;;;;;;;4976072;28;20267;-62
2023/08/01 09:17:31;;;;;;;12.88;2.78;;;;;;;;;;4956785;28;20231;-62
2023/08/01 09:20:05;;;;;;;16.27;3.17;;;;;;;;;;4975052;28;20295;-62
2023/08/01 09:22:30;;;;;;;21.27;3.40;;;;;;;;;;4977836;28;20761;-62
2023/08/01 09:24:55;;;;;;;13.60;2.60;;;;;;;;;;4963235;28;20307;-62
2023/08/01 09:27:22;;;;;;;18.90;2.80;;;;;;;;;;4981999;28;20227;-62
2023/08/01 09:29:47;;;;;;;17.20;3.03;;;;;;;;;;4981718;28;20232;-62
2023/08/01 09:32:13;;;;;;;9.18;1.73;;;;;;;;;;4978926;28;20654;-61
2023/08/01 09:34:39;;;;;;;12.23;2.15;;;;;;;;;;4985584;28;20381;-59
2023/08/01 09:37:04;;;;;;;9.05;2.15;;;;;;;;;;4984734;28;20848;-59
2023/08/01 09:39:29;;;;;;;17.55;2.83;;;;;;;;;;4977805;28;20279;-59
2023/08/01 09:41:55;;;;;;;10.73;1.80;;;;;;;;;;4977559;28;20213;-59
2023/08/01 09:44:21;;;;;;;9.07;2.25;;;;;;;;;;4961562;28;20676;-59
2023/08/01 09:47:06;;;;;;;10.40;2.20;;;;;;;;;;4985174;28;20312;-59
2023/08/01 09:49:32;;;;;;;19.45;2.38;;;;;;;;;;4983245;28;20216;-59
2023/08/01 09:51:57;;;;;;;5.70;1.85;;;;;;;;;;4985621;28;20704;-59
2023/08/01 09:54:24;;;;;;;8.18;2.10;;;;;;;;;;4985437;28;20213;-59
2023/08/01 09:56:50;;;;;;;23.70;2.78;;;;;;;;;;4985013;28;20224;-59
2023/08/01 09:59:18;;;;;;;18.60;2.50;;;;;;;;;;4983760;28;20351;-59
2023/08/01 10:01:44;;;;;;;8.75;2.22;;;;;;;;;;4977526;28;20220;-59
2023/08/01 10:04:09;;;;;;;9.23;2.55;;;;;;;;;;4976632;28;20221;-59
2023/08/01 10:06:36;;;;;;;97.53;7.68;;;;;;;;;;4959654;28;20763;-59
2023/08/01 10:09:01;;;;;;;13.73;2.30;;;;;;;;;;4984442;28;20212;-59
2023/08/01 10:11:27;;;;;;;13.77;2.28;;;;;;;;;;4985667;28;20224;-59
2023/08/01 10:13:52;;;;;;;13.45;2.25;;;;;;;;;;4983838;28;20776;-58
2023/08/01 10:16:17;;;;;;;17.52;2.53;;;;;;;;;;4966395;28;20248;-59
2023/08/01 10:18:43;;;;;;;10.48;2.05;;;;;;;;;;4985150;28;20901;-59
2023/08/01 10:21:08;;;;;;;5.80;1.70;;;;;;;;;;4984171;28;20228;-59
2023/08/01 10:23:34;;;;;;;9.15;2.20;;;;;;;;;;4978218;28;20695;-59
2023/08/01 10:26:00;;;;;;;8.10;2.00;;;;;;;;;;4977563;28;20227;-59
2023/08/01 10:28:35;;;;;;;85.03;6.07;;;;;;;;;;4949913;28;20220;-58
2023/08/01 10:31:08;;;;;;;10.18;2.30;;;;;;;;;;4980707;28;20209;-59
2023/08/01 10:33:33;;;;;;;20.25;2.88;;;;;;;;;;4984367;28;20220;-59
2023/08/01 10:35:59;;;;;;;37.92;4.13;;;;;;;;;;4967736;28;20217;-59
2023/08/01 10:38:24;;;;;;;6.10;2.03;;;;;;;;;;4983866;28;20225;-60
2023/08/01 10:40:49;;;;;;;8.70;1.90;;;;;;;;;;4983149;28;20221;-60
2023/08/01 10:43:20;;;;;;;8.18;1.98;;;;;;;;;;4983914;28;20224;-60
2023/08/01 10:45:45;;;;;;;19.05;2.47;;;;;;;;;;4952354;28;20874;-61
2023/08/01 10:48:11;;;;;;;9.70;2.58;;;;;;;;;;4973782;28;20251;-61
2023/08/01 10:50:36;;;;;;;10.07;2.03;;;;;;;;;;4976710;28;20697;-61
2023/08/01 10:53:02;;;;;;;13.20;2.58;;;;;;;;;;4977884;28;20210;-61
2023/08/01 10:55:28;;;;;;;8.00;2.17;;;;;;;;;;4982875;28;20632;-61
2023/08/01 10:57:54;;;;;;;15.20;1.95;;;;;;;;;;4983505;28;20712;-61
2023/08/01 11:00:20;;;;;;;14.00;2.33;;;;;;;;;;4988220;28;20689;-61
2023/08/01 11:02:49;;;;;;;7.40;2.10;;;;;;;;;;4988043;28;20217;-61
2023/08/01 11:05:14;;;;;;;10.25;2.00;;;;;;;;;;4988237;28;20628;-61
2023/08/01 11:07:39;;;;;;;6.95;1.85;;;;;;;;;;4987252;28;20668;-61
2023/08/01 11:10:05;;;;;;;9.10;1.77;;;;;;;;;;4979527;28;20244;-61
2023/08/01 11:12:33;;;;;;;9.52;2.20;;;;;;;;;;4979968;28;20223;-61
2023/08/01 11:14:59;;;;;;;26.17;2.88;;;;;;;;;;4981370;28;20276;-61
2023/08/01 11:17:25;;;;;;;14.57;2.42;;;;;;;;;;4969736;28;20236;-61
2023/08/01 11:19:50;;;;;;;26.48;3.55;;;;;;;;;;4987397;28;20248;-61
2023/08/01 11:22:15;;;;;;;49.85;4.78;;;;;;;;;;4986542;28;20221;-60
2023/08/01 11:24:40;;;;;;;8.07;2.00;;;;;;;;;;4987458;28;20283;-60
2023/08/01 11:27:06;;;;;;;13.80;2.42;;;;;;;;;;4968917;28;20308;-60
2023/08/01 11:29:31;;;;;;;8.15;1.67;;;;;;;;;;4986214;28;20211;-61
2023/08/01 11:31:57;;;;;;;7.28;1.80;;;;;;;;;;4963316;28;20227;-61
2023/08/01 11:34:22;;;;;;;6.53;1.60;;;;;;;;;;4978105;28;20610;-61
2023/08/01 11:36:48;;;;;;;5.75;1.73;;;;;;;;;;4980445;28;20221;-61
2023/08/01 11:39:13;;;;;;;8.23;1.70;;;;;;;;;;4984958;28;20217;-61
2023/08/01 11:41:39;;;;;;;5.88;1.60;;;;;;;;;;4969280;28;20248;-60
2023/08/01 11:44:04;;;;;;;10.50;1.75;;;;;;;;;;4968659;28;20228;-61
2023/08/01 11:46:31;;;;;;;13.73;2.17;;;;;;;;;;4986697;28;20221;-60
2023/08/01 11:48:56;;;;;;;83.50;6.32;;;;;;;;;;4986871;28;20232;-61
2023/08/01 11:51:22;;;;;;;46.35;4.07;;;;;;;;;;4985869;28;20217;-61
2023/08/01 11:53:57;;;;;;;14.10;1.80;;;;;;;;;;4982389;28;20412;-60
2023/08/01 11:56:23;;;;;;;14.77;2.22;;;;;;;;;;4977426;28;20243;-61
2023/08/01 11:58:49;;;;;;;11.77;1.77;;;;;;;;;;4978914;28;20425;-61
2023/08/01 12:01:14;;;;;;;10.00;1.80;;;;;;;;;;4982382;28;20232;-60
2023/08/01 12:03:43;;;;;;;60.58;5.20;;;;;;;;;;4986696;28;20217;-60
2023/08/01 12:06:09;;;;;;;8.77;1.80;;;;;;;;;;4980702;28;20229;-60
2023/08/01 12:08:34;;;;;;;16.92;2.38;;;;;;;;;;4983600;28;20272;-60
2023/08/01 12:11:00;;;;;;;8.43;1.70;;;;;;;;;;4983411;28;20704;-60
2023/08/01 12:13:25;;;;;;;6.63;1.73;;;;;;;;;;4981316;28;20235;-60
2023/08/01 12:15:51;;;;;;;6.43;1.75;;;;;;;;;;4981285;28;20276;-60
2023/08/01 12:18:20;;;;;;;7.25;1.95;;;;;;;;;;4974357;28;20528;-60
2023/08/01 12:20:45;;;;;;;4.63;1.40;;;;;;;;;;4975173;28;20742;-60
2023/08/01 12:23:10;;;;;;;4.47;1.50;;;;;;;;;;4975905;28;20218;-60
2023/08/01 12:25:36;;;;;;;5.45;1.55;;;;;;;;;;4983501;28;20518;-60
2023/08/01 12:28:01;;;;;;;17.67;2.13;;;;;;;;;;4982936;28;20283;-61
2023/08/01 12:30:27;;;;;;;12.98;2.28;;;;;;;;;;4981414;28;20213;-61
2023/08/01 12:32:53;;;;;;;4.28;1.40;;;;;;;;;;4985528;28;20680;-60
2023/08/01 12:35:18;;;;;;;15.73;2.30;;;;;;;;;;4988007;28;20631;-61
2023/08/01 12:37:43;;;;;;;11.30;1.85;;;;;;;;;;4988139;28;20215;-60
2023/08/01 12:40:09;;;;;;;8.82;1.60;;;;;;;;;;4986430;28;20213;-59
2023/08/01 12:42:34;;;;;;;4.47;1.45;;;;;;;;;;4988266;28;20224;-60
2023/08/01 12:44:59;;;;;;;44.17;4.53;;;;;;;;;;4987767;28;20268;-59
2023/08/01 12:47:25;;;;;;;10.82;1.80;;;;;;;;;;4985554;28;20284;-59
2023/08/01 12:49:50;;;;;;;13.38;2.00;;;;;;;;;;4971481;28;20568;-59
2023/08/01 12:52:21;;;;;;;10.45;1.52;;;;;;;;;;4988531;28;20217;-60
2023/08/01 12:54:47;;;;;;;9.20;2.00;;;;;;;;;;4986765;28;20213;-59
2023/08/01 12:57:12;;;;;;;18.55;2.38;;;;;;;;;;4987422;28;20224;-59
2023/08/01 12:59:37;;;;;;;8.32;1.83;;;;;;;;;;4988714;28;20543;-59
2023/08/01 13:02:08;;;;;;;13.15;2.15;;;;;;;;;;4986947;28;20217;-60
2023/08/01 13:04:33;;;;;;;8.25;2.05;;;;;;;;;;4986590;28;20229;-59
2023/08/01 13:06:58;;;;;;;8.68;2.25;;;;;;;;;;4971268;28;20217;-59
2023/08/01 13:09:23;;;;;;;9.02;1.90;;;;;;;;;;4988179;28;20217;-59
2023/08/01 13:11:49;;;;;;;12.10;2.15;;;;;;;;;;4986463;28;20296;-60
2023/08/01 13:14:14;;;;;;;12.77;2.13;;;;;;;;;;4987277;28;20223;-59
2023/08/01 13:16:39;;;;;;;9.95;2.20;;;;;;;;;;4988621;28;20305;-60
2023/08/01 13:19:06;;;;;;;22.50;3.53;;;;;;;;;;4986642;28;20401;-60
2023/08/01 13:21:31;;;;;;;21.42;2.40;;;;;;;;;;4986130;28;20732;-59
2023/08/01 13:23:56;;;;;;;7.78;2.13;;;;;;;;;;4988775;28;20304;-59
2023/08/01 13:26:22;;;;;;;8.70;2.05;;;;;;;;;;4987924;28;20240;-59
2023/08/01 13:28:47;;;;;;;9.93;2.10;;;;;;;;;;4985968;28;20209;-59
2023/08/01 13:31:12;;;;;;;19.85;2.63;;;;;;;;;;4988243;28;20247;-59
2023/08/01 13:33:38;;;;;;;12.85;2.50;;;;;;;;;;4988012;28;20224;-60
2023/08/01 13:36:03;;;;;;;8.55;2.10;;;;;;;;;;4982279;28;20275;-59
2023/08/01 13:38:29;;;;;;;6.18;1.92;;;;;;;;;;4988000;28;20241;-59
2023/08/01 13:40:54;;;;;;;7.47;1.70;;;;;;;;;;4987958;28;20223;-60
2023/08/01 13:43:20;;;;;;;8.27;1.98;;;;;;;;;;4986377;28;20292;-59
2023/08/01 13:45:45;;;;;;;15.95;2.33;;;;;;;;;;4986328;28;20981;-60
2023/08/01 13:48:10;;;;;;;26.70;3.40;;;;;;;;;;4987014;28;20311;-59
2023/08/01 13:50:36;;;;;;;19.35;2.30;;;;;;;;;;4986734;28;20217;-60
2023/08/01 13:53:01;;;;;;;13.63;2.25;;;;;;;;;;4985238;28;20561;-59
2023/08/01 13:55:26;;;;;;;24.15;2.63;;;;;;;;;;4988271;28;20267;-60
2023/08/01 13:57:51;;;;;;;8.05;2.08;;;;;;;;;;4988017;28;20237;-59
2023/08/01 14:00:17;;;;;;;8.93;2.08;;;;;;;;;;4985844;28;20216;-59
2023/08/01 14:02:42;;;;;;;10.80;2.05;;;;;;;;;;4987262;28;20271;-59
2023/08/01 14:05:08;;;;;;;62.67;5.68;;;;;;;;;;4986687;28;20653;-59
2023/08/01 14:07:39;;;;;;;12.40;2.10;;;;;;;;;;4986326;28;20221;-60
2023/08/01 14:10:04;;;;;;;6.22;1.60;;;;;;;;;;4985839;28;20217;-60
2023/08/01 14:12:30;;;;;;;7.78;1.90;;;;;;;;;;4987315;28;20209;-60
2023/08/01 14:14:55;;;;;;;7.45;1.67;;;;;;;;;;4987880;28;20477;-60
2023/08/01 14:17:20;;;;;;;9.45;1.88;;;;;;;;;;4985556;28;20575;-59
2023/08/01 14:19:46;;;;;;;12.50;2.00;;;;;;;;;;4988812;28;20680;-59
2023/08/01 14:22:11;;;;;;;7.60;1.90;;;;;;;;;;4990953;28;20240;-59
2023/08/01 14:24:36;;;;;;;5.05;1.40;;;;;;;;;;4989878;28;20235;-60